sensor_id;sensor_type;location;lat;lon;timestamp;temperature;humidity
22714;DHT22;11524;50.846;4.326;2023-03-03T00:00:44;16.50;57.50
22714;DHT22;11524;50.846;4.326;2023-03-03T00:03:13;16.50;57.70
22714;DHT22;11524;50.846;4.326;2023-03-03T00:05:40;16.50;58.30
22714;DHT22;11524;50.846;4.326;2023-03-03T00:08:07;16.50;57.90
22714;DHT22;11524;50.846;4.326;2023-03-03T00:10:33;16.50;56.90
22714;DHT22;11524;50.846;4.326;2023-03-03T00:12:59;16.40;57.90
22714;DHT22;11524;50.846;4.326;2023-03-03T00:15:25;16.40;58.10
22714;DHT22;11524;50.846;4.326;2023-03-03T00:17:51;16.40;59.10
22714;DHT22;11524;50.846;4.326;2023-03-03T00:20:33;16.40;58.80
22714;DHT22;11524;50.846;4.326;2023-03-03T00:25:52;16.50;57.70
22714;DHT22;11524;50.846;4.326;2023-03-03T00:28:26;16.50;59.40
22714;DHT22;11524;50.846;4.326;2023-03-03T00:30:54;16.40;57.80
22714;DHT22;11524;50.846;4.326;2023-03-03T00:33:41;16.40;57.90
22714;DHT22;11524;50.846;4.326;2023-03-03T00:38:41;16.40;58.20
22714;DHT22;11524;50.846;4.326;2023-03-03T00:41:23;16.40;58.30
22714;DHT22;11524;50.846;4.326;2023-03-03T00:43:50;16.40;58.90
22714;DHT22;11524;50.846;4.326;2023-03-03T00:46:21;16.40;59.00
22714;DHT22;11524;50.846;4.326;2023-03-03T00:48:48;16.40;58.10
22714;DHT22;11524;50.846;4.326;2023-03-03T00:51:28;16.30;58.70
22714;DHT22;11524;50.846;4.326;2023-03-03T00:53:55;16.40;58.40
22714;DHT22;11524;50.846;4.326;2023-03-03T00:56:21;16.40;58.40
22714;DHT22;11524;50.846;4.326;2023-03-03T00:58:47;16.30;58.50
22714;DHT22;11524;50.846;4.326;2023-03-03T01:01:13;16.30;59.40
22714;DHT22;11524;50.846;4.326;2023-03-03T01:03:39;16.40;59.40
22714;DHT22;11524;50.846;4.326;2023-03-03T01:06:05;16.40;58.20
22714;DHT22;11524;50.846;4.326;2023-03-03T01:08:30;16.30;59.20
22714;DHT22;11524;50.846;4.326;2023-03-03T01:11:04;16.30;58.40
22714;DHT22;11524;50.846;4.326;2023-03-03T01:13:33;16.30;58.30
22714;DHT22;11524;50.846;4.326;2023-03-03T01:16:00;16.30;57.80
22714;DHT22;11524;50.846;4.326;2023-03-03T01:18:27;16.30;59.10
22714;DHT22;11524;50.846;4.326;2023-03-03T01:20:52;16.30;59.20
22714;DHT22;11524;50.846;4.326;2023-03-03T01:23:18;16.30;58.60
22714;DHT22;11524;50.846;4.326;2023-03-03T01:25:44;16.30;59.50
22714;DHT22;11524;50.846;4.326;2023-03-03T01:28:10;16.30;59.30
22714;DHT22;11524;50.846;4.326;2023-03-03T01:30:37;16.30;59.20
22714;DHT22;11524;50.846;4.326;2023-03-03T01:33:03;16.20;59.20
22714;DHT22;11524;50.846;4.326;2023-03-03T01:35:28;16.20;59.30
22714;DHT22;11524;50.846;4.326;2023-03-03T01:37:55;16.30;58.70
22714;DHT22;11524;50.846;4.326;2023-03-03T01:40:23;16.30;58.90
22714;DHT22;11524;50.846;4.326;2023-03-03T01:42:49;16.20;59.20
22714;DHT22;11524;50.846;4.326;2023-03-03T01:47:55;16.20;58.90
22714;DHT22;11524;50.846;4.326;2023-03-03T01:50:41;16.20;59.10
22714;DHT22;11524;50.846;4.326;2023-03-03T01:53:59;16.20;58.50
22714;DHT22;11524;50.846;4.326;2023-03-03T01:56:06;16.20;58.50
22714;DHT22;11524;50.846;4.326;2023-03-03T02:01:26;16.20;59.00
22714;DHT22;11524;50.846;4.326;2023-03-03T02:03:52;16.10;54.50
22714;DHT22;11524;50.846;4.326;2023-03-03T02:06:21;16.10;54.30
22714;DHT22;11524;50.846;4.326;2023-03-03T02:09:14;16.00;54.40
22714;DHT22;11524;50.846;4.326;2023-03-03T02:11:41;16.10;54.50
22714;DHT22;11524;50.846;4.326;2023-03-03T02:14:10;15.90;54.40
22714;DHT22;11524;50.846;4.326;2023-03-03T02:16:36;15.90;54.30
22714;DHT22;11524;50.846;4.326;2023-03-03T02:19:04;15.80;54.50
22714;DHT22;11524;50.846;4.326;2023-03-03T02:21:31;15.80;54.30
22714;DHT22;11524;50.846;4.326;2023-03-03T02:26:31;15.80;54.50
22714;DHT22;11524;50.846;4.326;2023-03-03T02:28:58;15.80;54.50
22714;DHT22;11524;50.846;4.326;2023-03-03T02:31:27;15.70;54.70
22714;DHT22;11524;50.846;4.326;2023-03-03T02:33:53;15.70;54.70
22714;DHT22;11524;50.846;4.326;2023-03-03T02:36:28;15.70;54.70
22714;DHT22;11524;50.846;4.326;2023-03-03T02:39:07;15.70;54.60
22714;DHT22;11524;50.846;4.326;2023-03-03T02:44:18;15.70;54.50
22714;DHT22;11524;50.846;4.326;2023-03-03T02:46:45;15.70;54.90
22714;DHT22;11524;50.846;4.326;2023-03-03T02:49:14;15.70;54.60
22714;DHT22;11524;50.846;4.326;2023-03-03T02:51:41;15.60;54.40
22714;DHT22;11524;50.846;4.326;2023-03-03T02:54:08;15.60;54.60
22714;DHT22;11524;50.846;4.326;2023-03-03T02:56:34;15.60;54.80
22714;DHT22;11524;50.846;4.326;2023-03-03T02:59:00;15.60;55.00
22714;DHT22;11524;50.846;4.326;2023-03-03T03:01:26;15.60;54.90
22714;DHT22;11524;50.846;4.326;2023-03-03T03:03:52;15.60;54.90
22714;DHT22;11524;50.846;4.326;2023-03-03T03:06:18;15.60;54.90
22714;DHT22;11524;50.846;4.326;2023-03-03T03:08:43;15.60;54.70
22714;DHT22;11524;50.846;4.326;2023-03-03T03:11:09;15.60;54.90
22714;DHT22;11524;50.846;4.326;2023-03-03T03:13:35;15.60;54.40
22714;DHT22;11524;50.846;4.326;2023-03-03T03:16:00;15.50;54.60
22714;DHT22;11524;50.846;4.326;2023-03-03T03:18:27;15.50;54.60
22714;DHT22;11524;50.846;4.326;2023-03-03T03:20:52;15.50;54.60
22714;DHT22;11524;50.846;4.326;2023-03-03T03:23:18;15.60;54.60
22714;DHT22;11524;50.846;4.326;2023-03-03T03:25:46;15.50;54.40
22714;DHT22;11524;50.846;4.326;2023-03-03T03:28:13;15.50;54.50
22714;DHT22;11524;50.846;4.326;2023-03-03T03:30:39;15.50;55.00
22714;DHT22;11524;50.846;4.326;2023-03-03T03:33:05;15.50;54.80
22714;DHT22;11524;50.846;4.326;2023-03-03T03:35:32;15.50;54.70
22714;DHT22;11524;50.846;4.326;2023-03-03T03:37:58;15.50;54.60
22714;DHT22;11524;50.846;4.326;2023-03-03T03:40:24;15.40;54.80
22714;DHT22;11524;50.846;4.326;2023-03-03T03:42:51;15.50;54.70
22714;DHT22;11524;50.846;4.326;2023-03-03T03:45:17;15.40;54.70
22714;DHT22;11524;50.846;4.326;2023-03-03T03:47:42;15.40;54.50
22714;DHT22;11524;50.846;4.326;2023-03-03T03:50:09;15.40;55.10
22714;DHT22;11524;50.846;4.326;2023-03-03T03:52:35;15.40;54.40
22714;DHT22;11524;50.846;4.326;2023-03-03T03:55:00;15.40;54.50
22714;DHT22;11524;50.846;4.326;2023-03-03T03:57:26;15.40;54.20
22714;DHT22;11524;50.846;4.326;2023-03-03T03:59:52;15.40;54.10
22714;DHT22;11524;50.846;4.326;2023-03-03T04:02:18;15.30;54.30
22714;DHT22;11524;50.846;4.326;2023-03-03T04:04:44;15.40;54.30
22714;DHT22;11524;50.846;4.326;2023-03-03T04:07:10;15.30;54.30
22714;DHT22;11524;50.846;4.326;2023-03-03T04:09:36;15.30;54.30
22714;DHT22;11524;50.846;4.326;2023-03-03T04:12:01;15.30;54.00
22714;DHT22;11524;50.846;4.326;2023-03-03T04:14:27;15.40;54.20
22714;DHT22;11524;50.846;4.326;2023-03-03T04:16:52;15.40;54.20
22714;DHT22;11524;50.846;4.326;2023-03-03T04:19:18;15.30;54.10
22714;DHT22;11524;50.846;4.326;2023-03-03T04:21:43;15.30;53.90
22714;DHT22;11524;50.846;4.326;2023-03-03T04:24:09;15.30;53.80
22714;DHT22;11524;50.846;4.326;2023-03-03T04:26:35;15.30;53.90
22714;DHT22;11524;50.846;4.326;2023-03-03T04:29:00;15.30;54.10
22714;DHT22;11524;50.846;4.326;2023-03-03T04:31:26;15.20;54.20
22714;DHT22;11524;50.846;4.326;2023-03-03T04:33:52;15.30;54.10
22714;DHT22;11524;50.846;4.326;2023-03-03T04:36:19;15.30;54.30
22714;DHT22;11524;50.846;4.326;2023-03-03T04:38:45;15.30;54.50
22714;DHT22;11524;50.846;4.326;2023-03-03T04:41:10;15.30;54.10
22714;DHT22;11524;50.846;4.326;2023-03-03T04:43:36;15.20;54.10
22714;DHT22;11524;50.846;4.326;2023-03-03T04:46:02;15.30;53.90
22714;DHT22;11524;50.846;4.326;2023-03-03T04:48:27;15.30;54.30
22714;DHT22;11524;50.846;4.326;2023-03-03T04:50:53;15.20;53.90
22714;DHT22;11524;50.846;4.326;2023-03-03T04:53:19;15.20;53.80
22714;DHT22;11524;50.846;4.326;2023-03-03T04:55:44;15.30;54.20
22714;DHT22;11524;50.846;4.326;2023-03-03T04:58:10;15.20;54.10
22714;DHT22;11524;50.846;4.326;2023-03-03T05:00:36;15.20;54.10
22714;DHT22;11524;50.846;4.326;2023-03-03T05:03:02;15.20;54.10
22714;DHT22;11524;50.846;4.326;2023-03-03T05:05:27;15.20;54.10
22714;DHT22;11524;50.846;4.326;2023-03-03T05:07:53;15.20;54.20
22714;DHT22;11524;50.846;4.326;2023-03-03T05:10:19;15.40;54.30
22714;DHT22;11524;50.846;4.326;2023-03-03T05:12:45;15.20;54.50
22714;DHT22;11524;50.846;4.326;2023-03-03T05:15:11;15.20;54.00
22714;DHT22;11524;50.846;4.326;2023-03-03T05:17:37;15.20;54.30
22714;DHT22;11524;50.846;4.326;2023-03-03T05:20:04;15.20;54.70
22714;DHT22;11524;50.846;4.326;2023-03-03T05:22:30;15.20;54.10
22714;DHT22;11524;50.846;4.326;2023-03-03T05:24:56;15.20;54.30
22714;DHT22;11524;50.846;4.326;2023-03-03T05:27:22;15.10;54.30
22714;DHT22;11524;50.846;4.326;2023-03-03T05:29:47;15.20;54.80
22714;DHT22;11524;50.846;4.326;2023-03-03T05:32:13;15.20;54.60
22714;DHT22;11524;50.846;4.326;2023-03-03T05:34:39;15.10;54.40
22714;DHT22;11524;50.846;4.326;2023-03-03T05:37:05;15.10;54.50
22714;DHT22;11524;50.846;4.326;2023-03-03T05:39:31;15.20;54.50
22714;DHT22;11524;50.846;4.326;2023-03-03T05:41:57;15.20;54.80
22714;DHT22;11524;50.846;4.326;2023-03-03T05:44:25;15.20;54.80
22714;DHT22;11524;50.846;4.326;2023-03-03T05:46:50;15.10;54.50
22714;DHT22;11524;50.846;4.326;2023-03-03T05:49:16;15.10;54.40
22714;DHT22;11524;50.846;4.326;2023-03-03T05:51:42;15.10;55.00
22714;DHT22;11524;50.846;4.326;2023-03-03T05:54:07;15.20;54.80
22714;DHT22;11524;50.846;4.326;2023-03-03T05:56:33;15.10;54.90
22714;DHT22;11524;50.846;4.326;2023-03-03T05:58:59;15.10;54.60
22714;DHT22;11524;50.846;4.326;2023-03-03T06:01:24;15.10;54.50
22714;DHT22;11524;50.846;4.326;2023-03-03T06:03:51;15.10;54.70
22714;DHT22;11524;50.846;4.326;2023-03-03T06:06:17;15.10;55.00
22714;DHT22;11524;50.846;4.326;2023-03-03T06:08:43;15.10;54.80
22714;DHT22;11524;50.846;4.326;2023-03-03T06:11:10;15.10;54.30
22714;DHT22;11524;50.846;4.326;2023-03-03T06:13:36;15.00;55.10
22714;DHT22;11524;50.846;4.326;2023-03-03T06:16:01;15.10;55.20
22714;DHT22;11524;50.846;4.326;2023-03-03T06:18:27;15.10;55.50
22714;DHT22;11524;50.846;4.326;2023-03-03T06:20:53;15.10;55.60
22714;DHT22;11524;50.846;4.326;2023-03-03T06:23:19;15.00;55.20
22714;DHT22;11524;50.846;4.326;2023-03-03T06:25:45;15.00;54.50
22714;DHT22;11524;50.846;4.326;2023-03-03T06:28:12;15.00;54.50
22714;DHT22;11524;50.846;4.326;2023-03-03T06:30:38;15.10;54.40
22714;DHT22;11524;50.846;4.326;2023-03-03T06:33:03;15.10;55.00
22714;DHT22;11524;50.846;4.326;2023-03-03T06:35:29;15.20;55.50
22714;DHT22;11524;50.846;4.326;2023-03-03T06:37:55;15.40;52.10
22714;DHT22;11524;50.846;4.326;2023-03-03T06:40:20;15.70;51.00
22714;DHT22;11524;50.846;4.326;2023-03-03T06:42:46;15.80;49.80
22714;DHT22;11524;50.846;4.326;2023-03-03T06:45:12;16.00;48.80
22714;DHT22;11524;50.846;4.326;2023-03-03T06:47:38;16.20;48.10
22714;DHT22;11524;50.846;4.326;2023-03-03T06:50:04;16.20;48.60
22714;DHT22;11524;50.846;4.326;2023-03-03T06:52:30;16.20;48.40
22714;DHT22;11524;50.846;4.326;2023-03-03T06:54:58;16.30;48.60
22714;DHT22;11524;50.846;4.326;2023-03-03T06:57:32;16.40;48.50
22714;DHT22;11524;50.846;4.326;2023-03-03T07:00:17;16.40;48.20
22714;DHT22;11524;50.846;4.326;2023-03-03T07:02:45;16.50;47.80
22714;DHT22;11524;50.846;4.326;2023-03-03T07:05:16;16.70;48.20
22714;DHT22;11524;50.846;4.326;2023-03-03T07:07:42;16.60;48.30
22714;DHT22;11524;50.846;4.326;2023-03-03T07:10:20;16.70;48.00
22714;DHT22;11524;50.846;4.326;2023-03-03T07:12:46;16.70;48.20
22714;DHT22;11524;50.846;4.326;2023-03-03T07:15:22;16.70;47.40
22714;DHT22;11524;50.846;4.326;2023-03-03T07:17:54;16.70;47.40
22714;DHT22;11524;50.846;4.326;2023-03-03T07:20:35;16.80;47.70
22714;DHT22;11524;50.846;4.326;2023-03-03T07:23:24;16.70;46.40
22714;DHT22;11524;50.846;4.326;2023-03-03T07:25:50;16.60;47.10
22714;DHT22;11524;50.846;4.326;2023-03-03T07:28:27;16.50;47.00
22714;DHT22;11524;50.846;4.326;2023-03-03T07:30:55;16.40;47.10
22714;DHT22;11524;50.846;4.326;2023-03-03T07:33:26;16.40;46.80
22714;DHT22;11524;50.846;4.326;2023-03-03T07:35:54;16.40;47.10
22714;DHT22;11524;50.846;4.326;2023-03-03T07:38:24;16.30;50.20
22714;DHT22;11524;50.846;4.326;2023-03-03T07:40:56;16.20;51.70
22714;DHT22;11524;50.846;4.326;2023-03-03T07:43:36;16.20;51.10
22714;DHT22;11524;50.846;4.326;2023-03-03T07:46:19;16.30;51.20
22714;DHT22;11524;50.846;4.326;2023-03-03T07:48:48;16.10;50.40
22714;DHT22;11524;50.846;4.326;2023-03-03T07:51:26;16.20;51.10
22714;DHT22;11524;50.846;4.326;2023-03-03T07:56:39;16.30;50.60
22714;DHT22;11524;50.846;4.326;2023-03-03T07:59:24;16.30;50.70
22714;DHT22;11524;50.846;4.326;2023-03-03T08:01:57;16.30;50.10
22714;DHT22;11524;50.846;4.326;2023-03-03T08:04:39;16.30;50.50
22714;DHT22;11524;50.846;4.326;2023-03-03T08:07:10;16.30;50.10
22714;DHT22;11524;50.846;4.326;2023-03-03T08:09:43;16.30;50.10
22714;DHT22;11524;50.846;4.326;2023-03-03T08:12:26;16.30;50.10
22714;DHT22;11524;50.846;4.326;2023-03-03T08:14:53;16.30;50.00
22714;DHT22;11524;50.846;4.326;2023-03-03T08:17:22;16.30;49.50
22714;DHT22;11524;50.846;4.326;2023-03-03T08:19:49;16.30;49.60
22714;DHT22;11524;50.846;4.326;2023-03-03T08:22:18;16.30;50.00
22714;DHT22;11524;50.846;4.326;2023-03-03T08:24:44;16.30;50.10
22714;DHT22;11524;50.846;4.326;2023-03-03T08:27:09;16.10;49.20
22714;DHT22;11524;50.846;4.326;2023-03-03T08:29:36;16.00;50.20
22714;DHT22;11524;50.846;4.326;2023-03-03T08:32:01;15.90;51.20
22714;DHT22;11524;50.846;4.326;2023-03-03T08:34:27;15.80;51.80
22714;DHT22;11524;50.846;4.326;2023-03-03T08:36:52;15.90;50.30
22714;DHT22;11524;50.846;4.326;2023-03-03T08:39:18;15.80;50.60
22714;DHT22;11524;50.846;4.326;2023-03-03T08:41:43;15.80;50.30
22714;DHT22;11524;50.846;4.326;2023-03-03T08:44:10;15.70;50.50
22714;DHT22;11524;50.846;4.326;2023-03-03T08:46:36;15.70;50.80
22714;DHT22;11524;50.846;4.326;2023-03-03T08:49:02;15.60;50.80
22714;DHT22;11524;50.846;4.326;2023-03-03T08:51:27;15.70;50.70
22714;DHT22;11524;50.846;4.326;2023-03-03T08:53:53;15.70;51.10
22714;DHT22;11524;50.846;4.326;2023-03-03T08:56:19;15.60;51.10
22714;DHT22;11524;50.846;4.326;2023-03-03T08:58:45;15.60;51.10
22714;DHT22;11524;50.846;4.326;2023-03-03T09:01:13;15.60;51.30
22714;DHT22;11524;50.846;4.326;2023-03-03T09:03:40;15.60;52.30
22714;DHT22;11524;50.846;4.326;2023-03-03T09:06:05;15.60;51.90
22714;DHT22;11524;50.846;4.326;2023-03-03T09:08:31;15.60;51.70
22714;DHT22;11524;50.846;4.326;2023-03-03T09:10:56;15.60;51.60
22714;DHT22;11524;50.846;4.326;2023-03-03T09:13:22;15.60;53.50
22714;DHT22;11524;50.846;4.326;2023-03-03T09:15:48;15.60;51.30
22714;DHT22;11524;50.846;4.326;2023-03-03T09:18:19;15.60;51.10
22714;DHT22;11524;50.846;4.326;2023-03-03T09:20:51;15.70;50.80
22714;DHT22;11524;50.846;4.326;2023-03-03T09:23:36;15.60;51.10
22714;DHT22;11524;50.846;4.326;2023-03-03T09:26:46;15.60;50.70
22714;DHT22;11524;50.846;4.326;2023-03-03T09:29:35;15.60;50.80
22714;DHT22;11524;50.846;4.326;2023-03-03T09:32:38;15.90;50.50
22714;DHT22;11524;50.846;4.326;2023-03-03T09:37:51;15.90;49.80
22714;DHT22;11524;50.846;4.326;2023-03-03T09:43:58;15.80;49.90
22714;DHT22;11524;50.846;4.326;2023-03-03T09:49:16;15.80;50.00
22714;DHT22;11524;50.846;4.326;2023-03-03T09:52:04;15.90;49.70
22714;DHT22;11524;50.846;4.326;2023-03-03T09:54:49;15.90;49.70
22714;DHT22;11524;50.846;4.326;2023-03-03T09:57:34;15.90;49.80
22714;DHT22;11524;50.846;4.326;2023-03-03T10:13:39;15.90;49.70
22714;DHT22;11524;50.846;4.326;2023-03-03T10:22:32;15.80;49.90
22714;DHT22;11524;50.846;4.326;2023-03-03T10:35:54;15.80;50.50
22714;DHT22;11524;50.846;4.326;2023-03-03T10:52:16;16.00;50.10
22714;DHT22;11524;50.846;4.326;2023-03-03T10:55:07;16.00;50.10
22714;DHT22;11524;50.846;4.326;2023-03-03T11:05:57;15.80;50.10
22714;DHT22;11524;50.846;4.326;2023-03-03T11:11:36;15.80;50.50
22714;DHT22;11524;50.846;4.326;2023-03-03T11:16:46;15.80;50.50
22714;DHT22;11524;50.846;4.326;2023-03-03T11:19:37;15.80;50.50
22714;DHT22;11524;50.846;4.326;2023-03-03T11:25:13;15.80;50.30
22714;DHT22;11524;50.846;4.326;2023-03-03T11:38:40;15.90;50.80
22714;DHT22;11524;50.846;4.326;2023-03-03T11:46:49;16.20;50.10
22714;DHT22;11524;50.846;4.326;2023-03-03T11:49:42;16.10;50.20
22714;DHT22;11524;50.846;4.326;2023-03-03T11:59:57;16.30;49.40
22714;DHT22;11524;50.846;4.326;2023-03-03T12:02:44;16.30;50.00
22714;DHT22;11524;50.846;4.326;2023-03-03T12:05:46;16.20;50.10
22714;DHT22;11524;50.846;4.326;2023-03-03T12:08:34;16.20;50.40
22714;DHT22;11524;50.846;4.326;2023-03-03T12:11:27;16.20;50.40
22714;DHT22;11524;50.846;4.326;2023-03-03T12:14:19;16.30;50.30
22714;DHT22;11524;50.846;4.326;2023-03-03T12:17:03;16.30;50.40
22714;DHT22;11524;50.846;4.326;2023-03-03T12:20:19;16.30;50.00
22714;DHT22;11524;50.846;4.326;2023-03-03T12:25:44;16.20;50.20
22714;DHT22;11524;50.846;4.326;2023-03-03T12:28:20;16.30;50.50
22714;DHT22;11524;50.846;4.326;2023-03-03T12:33:50;16.40;50.00
22714;DHT22;11524;50.846;4.326;2023-03-03T12:44:25;16.40;50.00
22714;DHT22;11524;50.846;4.326;2023-03-03T12:49:47;16.40;49.80
22714;DHT22;11524;50.846;4.326;2023-03-03T12:52:23;16.40;49.90
22714;DHT22;11524;50.846;4.326;2023-03-03T12:55:15;16.40;50.00
22714;DHT22;11524;50.846;4.326;2023-03-03T12:57:57;16.40;50.10
22714;DHT22;11524;50.846;4.326;2023-03-03T13:06:05;16.50;49.50
22714;DHT22;11524;50.846;4.326;2023-03-03T13:08:50;16.50;49.90
22714;DHT22;11524;50.846;4.326;2023-03-03T13:17:16;16.60;49.70
22714;DHT22;11524;50.846;4.326;2023-03-03T13:25:45;16.60;50.00
22714;DHT22;11524;50.846;4.326;2023-03-03T13:27:44;16.60;50.30
22714;DHT22;11524;50.846;4.326;2023-03-03T13:35:45;16.60;50.10
22714;DHT22;11524;50.846;4.326;2023-03-03T13:38:19;16.70;49.90
22714;DHT22;11524;50.846;4.326;2023-03-03T13:43:42;16.70;49.70
22714;DHT22;11524;50.846;4.326;2023-03-03T13:49:37;16.70;49.60
22714;DHT22;11524;50.846;4.326;2023-03-03T13:52:14;16.70;49.60
22714;DHT22;11524;50.846;4.326;2023-03-03T14:11:16;16.80;50.20
22714;DHT22;11524;50.846;4.326;2023-03-03T14:16:48;16.90;50.10
22714;DHT22;11524;50.846;4.326;2023-03-03T14:19:27;16.90;49.80
22714;DHT22;11524;50.846;4.326;2023-03-03T14:22:18;17.00;49.60
22714;DHT22;11524;50.846;4.326;2023-03-03T14:25:06;17.00;50.10
22714;DHT22;11524;50.846;4.326;2023-03-03T14:27:33;17.00;50.20
22714;DHT22;11524;50.846;4.326;2023-03-03T14:29:59;17.00;49.90
22714;DHT22;11524;50.846;4.326;2023-03-03T14:38:09;17.00;50.20
22714;DHT22;11524;50.846;4.326;2023-03-03T14:40:38;17.10;50.20
22714;DHT22;11524;50.846;4.326;2023-03-03T14:43:25;17.20;50.10
22714;DHT22;11524;50.846;4.326;2023-03-03T14:45:51;17.10;49.90
22714;DHT22;11524;50.846;4.326;2023-03-03T14:50:59;17.20;49.60
22714;DHT22;11524;50.846;4.326;2023-03-03T14:53:44;17.20;49.60
22714;DHT22;11524;50.846;4.326;2023-03-03T14:56:22;17.20;50.30
22714;DHT22;11524;50.846;4.326;2023-03-03T14:58:50;17.30;50.10
22714;DHT22;11524;50.846;4.326;2023-03-03T15:03:57;17.40;49.60
22714;DHT22;11524;50.846;4.326;2023-03-03T15:06:43;17.30;49.30
22714;DHT22;11524;50.846;4.326;2023-03-03T15:09:36;17.30;48.90
22714;DHT22;11524;50.846;4.326;2023-03-03T15:12:33;17.40;48.90
22714;DHT22;11524;50.846;4.326;2023-03-03T15:17:36;17.30;49.10
22714;DHT22;11524;50.846;4.326;2023-03-03T15:22:48;17.40;48.70
22714;DHT22;11524;50.846;4.326;2023-03-03T15:30:52;17.40;48.90
22714;DHT22;11524;50.846;4.326;2023-03-03T15:39:02;17.40;49.10
22714;DHT22;11524;50.846;4.326;2023-03-03T15:41:46;17.40;48.90
22714;DHT22;11524;50.846;4.326;2023-03-03T15:50:23;17.80;47.70
22714;DHT22;11524;50.846;4.326;2023-03-03T15:53:03;17.90;47.70
22714;DHT22;11524;50.846;4.326;2023-03-03T15:58:50;18.00;47.20
22714;DHT22;11524;50.846;4.326;2023-03-03T16:01:45;18.10;47.40
22714;DHT22;11524;50.846;4.326;2023-03-03T16:04:20;18.10;47.40
22714;DHT22;11524;50.846;4.326;2023-03-03T16:07:13;18.10;47.50
22714;DHT22;11524;50.846;4.326;2023-03-03T16:21:28;18.10;46.70
22714;DHT22;11524;50.846;4.326;2023-03-03T16:32:52;18.10;47.00
22714;DHT22;11524;50.846;4.326;2023-03-03T16:35:30;18.10;46.90
22714;DHT22;11524;50.846;4.326;2023-03-03T16:38:03;18.10;46.90
22714;DHT22;11524;50.846;4.326;2023-03-03T16:40:52;18.10;47.00
22714;DHT22;11524;50.846;4.326;2023-03-03T16:45:57;18.10;46.70
22714;DHT22;11524;50.846;4.326;2023-03-03T16:51:48;18.10;46.70
22714;DHT22;11524;50.846;4.326;2023-03-03T16:57:38;18.10;46.90
22714;DHT22;11524;50.846;4.326;2023-03-03T17:00:28;18.10;47.00
22714;DHT22;11524;50.846;4.326;2023-03-03T17:03:19;18.10;47.10
22714;DHT22;11524;50.846;4.326;2023-03-03T17:09:06;18.10;47.10
22714;DHT22;11524;50.846;4.326;2023-03-03T17:12:07;18.10;47.40
22714;DHT22;11524;50.846;4.326;2023-03-03T17:14:45;18.10;47.20
22714;DHT22;11524;50.846;4.326;2023-03-03T17:17:18;18.00;46.10
22714;DHT22;11524;50.846;4.326;2023-03-03T17:23:12;17.90;46.00
22714;DHT22;11524;50.846;4.326;2023-03-03T17:26:17;17.80;45.30
22714;DHT22;11524;50.846;4.326;2023-03-03T17:39:49;17.80;46.90
22714;DHT22;11524;50.846;4.326;2023-03-03T17:45:16;17.80;47.50
22714;DHT22;11524;50.846;4.326;2023-03-03T17:50:38;17.90;47.90
22714;DHT22;11524;50.846;4.326;2023-03-03T17:53:45;17.90;48.00
22714;DHT22;11524;50.846;4.326;2023-03-03T18:21:01;17.90;47.90
22714;DHT22;11524;50.846;4.326;2023-03-03T18:23:39;17.90;48.30
22714;DHT22;11524;50.846;4.326;2023-03-03T18:26:41;17.90;48.40
22714;DHT22;11524;50.846;4.326;2023-03-03T18:29:23;17.90;48.20
22714;DHT22;11524;50.846;4.326;2023-03-03T18:34:38;17.90;48.00
22714;DHT22;11524;50.846;4.326;2023-03-03T18:42:34;17.90;47.50
22714;DHT22;11524;50.846;4.326;2023-03-03T18:50:34;17.90;47.40
22714;DHT22;11524;50.846;4.326;2023-03-03T18:53:17;17.80;47.30
22714;DHT22;11524;50.846;4.326;2023-03-03T18:55:45;17.80;47.60
22714;DHT22;11524;50.846;4.326;2023-03-03T19:00:56;17.80;47.70
22714;DHT22;11524;50.846;4.326;2023-03-03T19:06:10;17.80;47.30
22714;DHT22;11524;50.846;4.326;2023-03-03T19:08:45;17.80;47.30
22714;DHT22;11524;50.846;4.326;2023-03-03T19:11:50;17.80;47.10
22714;DHT22;11524;50.846;4.326;2023-03-03T19:14:28;17.80;47.00
22714;DHT22;11524;50.846;4.326;2023-03-03T19:17:43;17.80;46.90
22714;DHT22;11524;50.846;4.326;2023-03-03T19:20:11;17.80;47.30
22714;DHT22;11524;50.846;4.326;2023-03-03T19:23:15;17.80;47.40
22714;DHT22;11524;50.846;4.326;2023-03-03T19:25:42;17.80;46.90
22714;DHT22;11524;50.846;4.326;2023-03-03T19:28:37;17.80;47.10
22714;DHT22;11524;50.846;4.326;2023-03-03T19:31:24;17.80;46.80
22714;DHT22;11524;50.846;4.326;2023-03-03T19:34:08;17.80;46.80
22714;DHT22;11524;50.846;4.326;2023-03-03T19:42:42;17.70;47.10
22714;DHT22;11524;50.846;4.326;2023-03-03T19:50:53;17.70;47.20
22714;DHT22;11524;50.846;4.326;2023-03-03T19:53:42;17.80;47.30
22714;DHT22;11524;50.846;4.326;2023-03-03T20:01:32;17.70;47.00
22714;DHT22;11524;50.846;4.326;2023-03-03T20:04:17;17.70;46.90
22714;DHT22;11524;50.846;4.326;2023-03-03T20:06:55;17.80;47.00
22714;DHT22;11524;50.846;4.326;2023-03-03T20:17:33;17.80;47.00
22714;DHT22;11524;50.846;4.326;2023-03-03T20:26:07;17.70;46.80
22714;DHT22;11524;50.846;4.326;2023-03-03T20:29:02;17.70;47.00
22714;DHT22;11524;50.846;4.326;2023-03-03T20:31:43;17.70;46.80
22714;DHT22;11524;50.846;4.326;2023-03-03T20:37:28;17.70;47.00
22714;DHT22;11524;50.846;4.326;2023-03-03T20:43:01;17.70;47.00
22714;DHT22;11524;50.846;4.326;2023-03-03T20:48:15;17.70;46.90
22714;DHT22;11524;50.846;4.326;2023-03-03T20:50:52;17.80;47.30
22714;DHT22;11524;50.846;4.326;2023-03-03T20:56:30;17.70;47.40
22714;DHT22;11524;50.846;4.326;2023-03-03T21:05:07;17.80;47.20
22714;DHT22;11524;50.846;4.326;2023-03-03T21:07:33;17.80;47.00
22714;DHT22;11524;50.846;4.326;2023-03-03T21:10:13;17.80;47.20
22714;DHT22;11524;50.846;4.326;2023-03-03T21:12:39;17.80;47.50
22714;DHT22;11524;50.846;4.326;2023-03-03T21:15:30;17.70;47.10
22714;DHT22;11524;50.846;4.326;2023-03-03T21:17:58;17.40;47.60
22714;DHT22;11524;50.846;4.326;2023-03-03T21:20:26;17.20;48.70
22714;DHT22;11524;50.846;4.326;2023-03-03T21:22:53;16.90;49.20
22714;DHT22;11524;50.846;4.326;2023-03-03T21:25:45;16.90;49.60
22714;DHT22;11524;50.846;4.326;2023-03-03T21:31:12;16.70;49.60
22714;DHT22;11524;50.846;4.326;2023-03-03T21:33:49;16.70;52.70
22714;DHT22;11524;50.846;4.326;2023-03-03T21:37:02;16.60;53.20
22714;DHT22;11524;50.846;4.326;2023-03-03T21:41:52;16.70;53.50
22714;DHT22;11524;50.846;4.326;2023-03-03T21:47:17;16.60;53.60
22714;DHT22;11524;50.846;4.326;2023-03-03T21:49:45;16.70;53.80
22714;DHT22;11524;50.846;4.326;2023-03-03T21:52:12;16.60;54.00
22714;DHT22;11524;50.846;4.326;2023-03-03T21:54:39;16.60;54.00
22714;DHT22;11524;50.846;4.326;2023-03-03T21:57:05;16.60;54.00
22714;DHT22;11524;50.846;4.326;2023-03-03T21:59:30;16.60;53.90
22714;DHT22;11524;50.846;4.326;2023-03-03T22:01:56;16.60;54.00
22714;DHT22;11524;50.846;4.326;2023-03-03T22:04:21;16.60;54.00
22714;DHT22;11524;50.846;4.326;2023-03-03T22:06:47;16.60;54.50
22714;DHT22;11524;50.846;4.326;2023-03-03T22:09:13;16.60;54.50
22714;DHT22;11524;50.846;4.326;2023-03-03T22:11:38;16.70;54.80